createdAt,value
2019-02-05T00:00:54.266Z,6.00
2019-02-05T00:01:54.255Z,6.00
2019-02-05T00:02:54.247Z,6.69
2019-02-05T00:03:54.233Z,6.90
2019-02-05T00:04:54.222Z,5.50
2019-02-05T00:05:54.214Z,6.19
2019-02-05T00:06:54.202Z,5.69
2019-02-05T00:07:54.191Z,5.69
2019-02-05T00:08:54.178Z,6.09
2019-02-05T00:09:54.169Z,6.30
2019-02-05T00:10:54.157Z,6.00
2019-02-05T00:11:54.146Z,5.80
2019-02-05T00:12:54.137Z,5.90
2019-02-05T00:13:54.125Z,6.19
2019-02-05T00:14:54.117Z,6.40
2019-02-05T00:15:54.102Z,6.00
2019-02-05T00:16:54.092Z,5.59
2019-02-05T00:17:54.082Z,5.80
2019-02-05T00:18:54.071Z,6.09
2019-02-05T00:19:54.059Z,6.19
2019-02-05T00:20:54.046Z,6.19
2019-02-05T00:21:54.044Z,6.09
2019-02-05T00:22:54.029Z,6.19
2019-02-05T00:23:54.017Z,5.90
2019-02-05T00:24:54.007Z,6.50
2019-02-05T00:25:53.994Z,5.80
2019-02-05T00:26:53.982Z,6.30
2019-02-05T00:27:53.973Z,6.09
2019-02-05T00:28:53.963Z,6.59
2019-02-05T00:29:53.949Z,6.09
2019-02-05T00:30:53.939Z,6.00
2019-02-05T00:31:53.929Z,6.50
2019-02-05T00:32:53.919Z,6.00
2019-02-05T00:33:53.914Z,6.09
2019-02-05T00:34:53.898Z,6.40
2019-02-05T00:35:53.892Z,6.19
2019-02-05T00:36:53.878Z,6.30
2019-02-05T00:37:53.864Z,6.09
2019-02-05T00:38:53.853Z,6.19
2019-02-05T00:39:53.842Z,6.59
2019-02-05T00:40:53.832Z,6.40
2019-02-05T00:41:53.821Z,6.50
2019-02-05T00:42:53.809Z,6.30
2019-02-05T00:43:53.804Z,6.09
2019-02-05T00:44:53.787Z,5.80
2019-02-05T00:45:53.776Z,6.30
2019-02-05T00:46:53.769Z,5.90
2019-02-05T00:47:53.757Z,6.30
2019-02-05T00:48:53.744Z,6.30
2019-02-05T00:49:53.734Z,6.50
2019-02-05T00:50:53.722Z,6.40
2019-02-05T00:51:53.711Z,5.69
2019-02-05T00:52:53.703Z,6.09
2019-02-05T00:53:53.691Z,6.09
2019-02-05T00:54:53.686Z,6.30
2019-02-05T00:55:53.672Z,6.19
2019-02-05T00:56:53.659Z,6.30
2019-02-05T00:57:53.647Z,6.59
2019-02-05T00:58:53.635Z,6.80
2019-02-05T00:59:53.623Z,6.69
2019-02-05T01:00:53.616Z,6.50
2019-02-05T01:01:53.603Z,7.00
2019-02-05T01:02:53.699Z,6.59
2019-02-05T01:03:53.582Z,6.40
2019-02-05T01:04:53.571Z,6.00
2019-02-05T01:05:53.570Z,6.19
2019-02-05T01:06:53.550Z,6.30
2019-02-05T01:07:53.537Z,6.09
2019-02-05T01:08:53.528Z,6.50
2019-02-05T01:09:53.515Z,6.30
2019-02-05T01:10:53.503Z,6.30
2019-02-05T01:11:53.493Z,6.40
2019-02-05T01:12:53.486Z,6.59
2019-02-05T01:13:53.475Z,6.30
2019-02-05T01:14:53.461Z,6.59
2019-02-05T01:15:53.451Z,6.40
2019-02-05T01:16:53.441Z,5.90
2019-02-05T01:17:53.430Z,6.00
2019-02-05T01:18:53.423Z,6.19
2019-02-05T01:19:53.408Z,6.09
2019-02-05T01:20:53.402Z,6.19
2019-02-05T01:21:53.386Z,6.40
2019-02-05T01:22:53.379Z,6.30
2019-02-05T01:23:53.363Z,6.30
2019-02-05T01:24:53.352Z,6.40
2019-02-05T01:25:53.340Z,6.19
2019-02-05T01:26:53.332Z,6.09
2019-02-05T01:27:53.317Z,5.90
2019-02-05T01:28:53.312Z,6.00
2019-02-05T01:29:53.297Z,6.09
2019-02-05T01:30:53.290Z,6.30
2019-02-05T01:31:53.274Z,6.69
2019-02-05T01:32:53.263Z,6.50
2019-02-05T01:33:53.254Z,6.59
2019-02-05T01:34:53.244Z,6.09
2019-02-05T01:35:53.242Z,6.30
2019-02-05T01:36:53.221Z,6.59
2019-02-05T01:37:53.210Z,6.59
2019-02-05T01:38:53.198Z,6.80
2019-02-05T01:39:53.200Z,7.00
2019-02-05T01:40:53.179Z,6.19
2019-02-05T01:41:53.165Z,6.90
2019-02-05T01:42:53.155Z,6.50
2019-02-05T01:43:53.162Z,6.80
2019-02-05T01:44:53.132Z,6.50
2019-02-05T01:45:53.121Z,6.00
2019-02-05T01:46:53.110Z,6.19
2019-02-05T01:47:53.103Z,6.69
2019-02-05T01:48:53.141Z,6.69
2019-02-05T01:49:53.080Z,6.50
2019-02-05T01:50:53.067Z,6.80
2019-02-05T01:51:53.056Z,6.90
2019-02-05T01:52:53.047Z,6.40
2019-02-05T01:53:53.036Z,6.40
2019-02-05T01:54:53.023Z,6.19
2019-02-05T01:55:53.013Z,6.19
2019-02-05T01:56:53.002Z,6.00
2019-02-05T01:57:53.001Z,6.30
2019-02-05T01:58:52.980Z,6.50
2019-02-05T01:59:52.968Z,6.40
2019-02-05T02:00:52.959Z,6.69
2019-02-05T02:01:52.945Z,6.59
2019-02-05T02:02:52.937Z,6.30
2019-02-05T02:03:52.925Z,7.19
2019-02-05T02:04:52.915Z,7.09
2019-02-05T02:05:52.906Z,7.00
2019-02-05T02:06:52.890Z,7.09
2019-02-05T02:07:52.883Z,7.00
2019-02-05T02:08:52.870Z,7.09
2019-02-05T02:09:52.859Z,7.19
2019-02-05T02:10:52.848Z,7.09
2019-02-05T02:11:52.854Z,7.00
2019-02-05T02:12:52.829Z,6.50
2019-02-05T02:13:52.898Z,6.59
2019-02-05T02:14:52.804Z,7.50
2019-02-05T02:15:52.794Z,6.90
2019-02-05T02:16:52.787Z,7.19
2019-02-05T02:17:52.771Z,6.69
2019-02-05T02:18:52.759Z,6.59
2019-02-05T02:19:52.750Z,6.59
2019-02-05T02:20:52.738Z,7.19
2019-02-05T02:21:52.727Z,7.09
2019-02-05T02:22:52.793Z,7.40
2019-02-05T02:23:52.709Z,7.00
2019-02-05T02:24:52.696Z,7.19
2019-02-05T02:25:52.698Z,7.19
2019-02-05T02:26:52.674Z,6.80
2019-02-05T02:27:52.670Z,6.80
2019-02-05T02:28:52.653Z,6.80
2019-02-05T02:29:52.642Z,6.69
2019-02-05T02:30:52.628Z,6.59
2019-02-05T02:31:52.750Z,6.40
2019-02-05T02:32:52.617Z,6.50
2019-02-05T02:33:52.595Z,6.59
2019-02-05T02:34:52.586Z,7.30
2019-02-05T02:35:52.600Z,6.80
2019-02-05T02:36:52.569Z,6.40
2019-02-05T02:37:52.568Z,7.09
2019-02-05T02:38:52.537Z,6.90
2019-02-05T02:39:52.638Z,7.59
2019-02-05T02:40:52.519Z,7.09
2019-02-05T02:41:52.538Z,7.30
2019-02-05T02:42:52.496Z,6.50
2019-02-05T02:43:52.484Z,7.30
2019-02-05T02:44:52.472Z,7.09
2019-02-05T02:45:52.466Z,7.40
2019-02-05T02:46:52.451Z,6.90
2019-02-05T02:47:52.440Z,6.40
2019-02-05T02:48:52.432Z,6.50
2019-02-05T02:49:52.418Z,6.69
2019-02-05T02:50:52.421Z,6.69
2019-02-05T02:51:52.396Z,7.09
2019-02-05T02:52:52.397Z,6.80
2019-02-05T02:53:52.374Z,7.19
2019-02-05T02:54:52.364Z,7.00
2019-02-05T02:55:52.353Z,7.00
2019-02-05T02:57:04.373Z,7.19
2019-02-05T02:57:53.350Z,6.69
2019-02-05T02:58:52.320Z,7.00
2019-02-05T02:59:52.309Z,6.30
2019-02-05T03:00:52.299Z,6.50
2019-02-05T03:01:52.298Z,6.19
2019-02-05T03:02:52.281Z,6.59
2019-02-05T03:03:52.266Z,6.30
2019-02-05T03:04:52.254Z,6.80
2019-02-05T03:05:52.244Z,6.40
2019-02-05T03:06:52.237Z,6.90
2019-02-05T03:07:52.222Z,6.40
2019-02-05T03:08:52.219Z,6.50
2019-02-05T03:09:52.198Z,6.69
2019-02-05T03:10:52.198Z,6.69
2019-02-05T03:11:52.177Z,6.30
2019-02-05T03:12:52.167Z,5.90
2019-02-05T03:13:52.157Z,6.59
2019-02-05T03:14:52.148Z,6.30
2019-02-05T03:15:52.135Z,6.40
2019-02-05T03:16:52.162Z,6.19
2019-02-05T03:17:52.119Z,6.40
2019-02-05T03:18:52.102Z,6.59
2019-02-05T03:19:52.091Z,6.80
2019-02-05T03:20:52.137Z,6.50
2019-02-05T03:21:52.067Z,6.40
2019-02-05T03:22:52.058Z,6.30
2019-02-05T03:23:52.044Z,6.50
2019-02-05T03:24:52.036Z,6.40
2019-02-05T03:25:52.024Z,7.00
2019-02-05T03:26:52.015Z,6.30
2019-02-05T03:27:53.732Z,6.80
2019-02-05T03:28:51.989Z,6.19
2019-02-05T03:29:51.981Z,6.80
2019-02-05T03:30:51.975Z,6.19
2019-02-05T03:31:51.977Z,6.40
2019-02-05T03:32:51.972Z,6.50
2019-02-05T03:33:51.936Z,5.90
2019-02-05T03:34:51.924Z,6.19
2019-02-05T03:35:51.915Z,6.59
2019-02-05T03:36:51.906Z,6.90
2019-02-05T03:37:51.898Z,6.59
2019-02-05T03:38:51.883Z,6.69
2019-02-05T03:39:51.882Z,6.80
2019-02-05T03:40:51.859Z,6.90
2019-02-05T03:41:51.848Z,6.59
2019-02-05T03:42:51.841Z,6.50
2019-02-05T03:43:51.825Z,6.59
2019-02-05T03:44:51.816Z,6.19
2019-02-05T03:45:51.803Z,6.50
2019-02-05T03:46:51.798Z,6.30
2019-02-05T03:47:51.784Z,6.50
2019-02-05T03:48:51.775Z,6.40
2019-02-05T03:49:51.762Z,6.69
2019-02-05T03:50:51.750Z,6.59
2019-02-05T03:51:51.739Z,7.00
2019-02-05T03:52:51.728Z,7.09
2019-02-05T03:53:51.745Z,7.50
2019-02-05T03:54:51.706Z,8.00
2019-02-05T03:55:51.696Z,7.90
2019-02-05T03:56:51.691Z,7.59
2019-02-05T03:57:51.673Z,7.00
2019-02-05T03:58:51.664Z,7.69
2019-02-05T03:59:51.652Z,7.59
2019-02-05T04:00:51.644Z,7.00
2019-02-05T04:01:51.631Z,7.40
2019-02-05T04:02:51.618Z,7.30
2019-02-05T04:03:51.609Z,7.69
2019-02-05T04:04:51.597Z,7.59
2019-02-05T04:05:51.597Z,7.69
2019-02-05T04:06:51.576Z,7.50
2019-02-05T04:07:51.564Z,7.40
2019-02-05T04:08:51.553Z,7.40
2019-02-05T04:09:51.543Z,7.40
2019-02-05T04:10:51.532Z,7.59
2019-02-05T04:11:51.520Z,7.69
2019-02-05T04:12:51.512Z,7.50
2019-02-05T04:13:51.499Z,7.69
2019-02-05T04:14:51.495Z,7.59
2019-02-05T04:15:51.477Z,7.40
2019-02-05T04:16:51.466Z,7.40
2019-02-05T04:17:51.456Z,6.90
2019-02-05T04:18:51.443Z,7.30
2019-02-05T04:19:51.430Z,7.69
2019-02-05T04:20:51.420Z,7.19
2019-02-05T04:21:51.409Z,7.30
2019-02-05T04:22:51.398Z,7.90
2019-02-05T04:23:51.386Z,7.69
2019-02-05T04:24:51.377Z,7.30
2019-02-05T04:25:51.366Z,7.09
2019-02-05T04:26:51.355Z,7.69
2019-02-05T04:27:51.352Z,7.09
2019-02-05T04:28:51.347Z,7.50
2019-02-05T04:29:51.322Z,7.90
2019-02-05T04:30:51.309Z,8.00
2019-02-05T04:31:51.298Z,7.80
2019-02-05T04:32:51.287Z,8.00
2019-02-05T04:33:51.284Z,7.09
2019-02-05T04:34:51.265Z,7.09
2019-02-05T04:35:51.256Z,6.90
2019-02-05T04:36:51.245Z,7.69
2019-02-05T04:37:51.233Z,7.00
2019-02-05T04:38:51.221Z,7.19
2019-02-05T04:39:51.219Z,7.19
2019-02-05T04:40:51.280Z,6.80
2019-02-05T04:41:51.310Z,6.59
2019-02-05T04:42:51.179Z,6.19
2019-02-05T04:43:51.165Z,7.09
2019-02-05T04:44:51.160Z,6.80
2019-02-05T04:45:51.145Z,7.09
2019-02-05T04:46:51.133Z,6.90
2019-02-05T04:47:51.125Z,6.90
2019-02-05T04:48:51.116Z,6.90
2019-02-05T04:49:51.100Z,7.09
2019-02-05T04:50:51.090Z,7.40
2019-02-05T04:51:51.079Z,6.19
2019-02-05T04:52:51.071Z,6.50
2019-02-05T04:53:51.059Z,6.80
2019-02-05T04:54:51.048Z,6.80
2019-02-05T04:55:51.035Z,6.90
2019-02-05T04:56:51.026Z,6.80
2019-02-05T04:57:57.980Z,7.30
2019-02-05T05:00:37.722Z,6.59
2019-02-05T05:01:37.715Z,6.69
2019-02-05T05:02:37.710Z,7.40
2019-02-05T05:03:37.693Z,7.59
2019-02-05T05:04:37.682Z,7.69
2019-02-05T05:05:37.670Z,7.30
2019-02-05T05:06:37.660Z,7.40
2019-02-05T05:07:37.647Z,7.59
2019-02-05T05:08:37.633Z,6.80
2019-02-05T05:09:37.623Z,7.19
2019-02-05T05:10:37.620Z,7.50
2019-02-05T05:11:40.905Z,7.59
2019-02-05T05:12:37.590Z,7.00
2019-02-05T05:13:37.580Z,7.00
2019-02-05T05:14:37.567Z,7.00
2019-02-05T05:15:37.556Z,7.00
2019-02-05T05:16:37.546Z,7.30
2019-02-05T05:17:37.537Z,6.50
2019-02-05T05:18:37.527Z,7.00
2019-02-05T05:19:37.511Z,7.19
2019-02-05T05:20:37.507Z,7.40
2019-02-05T05:21:37.494Z,7.40
2019-02-05T05:22:37.482Z,6.59
2019-02-05T05:23:37.468Z,7.09
2019-02-05T05:24:37.462Z,7.40
2019-02-05T05:25:37.452Z,7.30
2019-02-05T05:26:37.438Z,7.90
2019-02-05T05:27:37.430Z,7.59
2019-02-05T05:28:37.414Z,7.80
2019-02-05T05:29:37.403Z,7.59
2019-02-05T05:30:37.392Z,7.90
2019-02-05T05:31:37.401Z,7.69
2019-02-05T05:32:37.373Z,7.69
2019-02-05T05:33:37.360Z,7.69
2019-02-05T05:34:37.349Z,7.50
2019-02-05T05:35:41.831Z,7.90
2019-02-05T05:38:24.046Z,8.00
2019-02-05T05:39:24.034Z,7.80
2019-02-05T05:40:24.024Z,7.69
2019-02-05T05:41:24.014Z,8.30
2019-02-05T05:42:24.002Z,7.80
2019-02-05T05:43:23.994Z,8.50
2019-02-05T05:44:23.984Z,8.39
2019-02-05T05:45:23.971Z,8.60
2019-02-05T05:46:23.960Z,8.19
2019-02-05T05:47:23.949Z,8.39
2019-02-05T05:48:23.938Z,8.19
2019-02-05T05:49:23.927Z,8.30
2019-02-05T05:50:23.919Z,7.90
2019-02-05T05:51:23.904Z,8.60
2019-02-05T05:52:23.892Z,8.60
2019-02-05T05:53:23.883Z,8.50
2019-02-05T05:54:23.871Z,9.30
2019-02-05T05:55:23.877Z,8.89
2019-02-05T05:56:23.871Z,9.10
2019-02-05T05:57:23.838Z,8.69
2019-02-05T05:58:23.829Z,8.60
2019-02-05T05:59:23.814Z,7.80
2019-02-05T06:00:23.803Z,8.19
2019-02-05T06:01:23.793Z,8.60
2019-02-05T06:02:23.786Z,8.10
2019-02-05T06:03:23.777Z,8.19
2019-02-05T06:04:23.763Z,8.69
2019-02-05T06:05:23.757Z,8.60
2019-02-05T06:06:23.737Z,8.50
2019-02-05T06:07:23.727Z,8.10
2019-02-05T06:08:23.715Z,8.39
2019-02-05T06:09:23.704Z,8.10
2019-02-05T06:10:23.694Z,8.00
2019-02-05T06:11:23.686Z,8.10
2019-02-05T06:12:23.673Z,8.00
2019-02-05T06:13:23.661Z,8.19
2019-02-05T06:14:23.652Z,8.50
2019-02-05T06:15:23.641Z,8.19
2019-02-05T06:16:23.629Z,7.90
2019-02-05T06:17:23.617Z,7.90
2019-02-05T06:18:23.606Z,8.30
2019-02-05T06:19:23.598Z,8.50
2019-02-05T06:20:23.600Z,7.59
2019-02-05T06:21:23.636Z,8.00
2019-02-05T06:22:23.567Z,7.80
2019-02-05T06:23:23.553Z,8.10
2019-02-05T06:24:23.541Z,8.19
2019-02-05T06:25:23.532Z,8.19
2019-02-05T06:26:23.519Z,8.50
2019-02-05T06:27:23.508Z,8.30
2019-02-05T06:28:33.995Z,8.19
2019-02-05T06:29:44.682Z,8.00
2019-02-05T06:30:44.663Z,8.60
2019-02-05T06:31:44.652Z,8.69
2019-02-05T06:32:44.642Z,9.10
2019-02-05T06:33:44.632Z,8.80
2019-02-05T06:34:44.621Z,8.80
2019-02-05T06:35:44.634Z,8.30
2019-02-05T06:36:44.600Z,8.60
2019-02-05T06:37:44.588Z,8.60
2019-02-05T06:38:44.918Z,8.39
2019-02-05T06:39:44.564Z,8.39
2019-02-05T06:40:44.552Z,8.60
2019-02-05T06:41:44.542Z,8.10
2019-02-05T06:42:44.531Z,8.30
2019-02-05T06:43:44.520Z,8.30
2019-02-05T06:44:44.509Z,8.69
2019-02-05T06:45:44.500Z,8.39
2019-02-05T06:46:44.488Z,8.50
2019-02-05T06:47:44.512Z,8.60
2019-02-05T06:48:44.464Z,9.19
2019-02-05T06:49:44.455Z,10.10
2019-02-05T06:50:44.465Z,9.30
2019-02-05T06:51:44.431Z,10.10
2019-02-05T06:52:44.421Z,10.69
2019-02-05T06:53:44.410Z,8.89
2019-02-05T06:54:44.401Z,9.69
2019-02-05T06:55:44.392Z,10.10
2019-02-05T06:56:44.494Z,9.80
2019-02-05T06:57:44.370Z,9.19
2019-02-05T06:58:46.490Z,9.50
2019-02-05T06:59:44.344Z,9.19
2019-02-05T07:00:44.336Z,9.10
2019-02-05T07:01:44.324Z,8.60
2019-02-05T07:02:44.314Z,9.50
2019-02-05T07:03:44.303Z,9.39
2019-02-05T07:04:44.291Z,9.50
2019-02-05T07:05:44.282Z,8.89
2019-02-05T07:06:44.269Z,9.39
2019-02-05T07:07:44.257Z,9.69
2019-02-05T07:08:44.249Z,9.50
2019-02-05T07:09:44.236Z,9.60
2019-02-05T07:10:44.228Z,10.19
2019-02-05T07:11:44.214Z,10.19
2019-02-05T07:12:44.203Z,10.19
2019-02-05T07:13:44.193Z,10.10
2019-02-05T07:14:44.185Z,10.39
2019-02-05T07:15:44.176Z,10.10
2019-02-05T07:16:44.166Z,10.00
2019-02-05T07:17:50.025Z,9.50
2019-02-05T07:20:30.857Z,9.30
2019-02-05T07:21:30.845Z,9.19
2019-02-05T07:22:30.833Z,9.69
2019-02-05T07:23:30.823Z,9.69
2019-02-05T07:24:30.812Z,9.89
2019-02-05T07:25:30.802Z,10.00
2019-02-05T07:26:30.792Z,9.89
2019-02-05T07:27:30.779Z,9.60
2019-02-05T07:28:30.771Z,9.39
2019-02-05T07:29:30.758Z,9.39
2019-02-05T07:30:30.747Z,9.50
2019-02-05T07:31:30.733Z,9.19
2019-02-05T07:32:30.725Z,9.19
2019-02-05T07:33:30.714Z,9.80
2019-02-05T07:34:30.707Z,10.19
2019-02-05T07:35:30.694Z,10.69
2019-02-05T07:36:30.680Z,11.00
2019-02-05T07:37:30.669Z,11.30
2019-02-05T07:38:30.663Z,12.10
2019-02-05T07:39:30.646Z,12.00
2019-02-05T07:40:30.636Z,11.00
2019-02-05T07:41:30.623Z,11.30
2019-02-05T07:42:30.612Z,11.80
2019-02-05T07:43:30.602Z,11.00
2019-02-05T07:44:30.592Z,11.50
2019-02-05T07:45:30.581Z,11.60
2019-02-05T07:46:30.570Z,11.50
2019-02-05T07:47:30.559Z,11.69
2019-02-05T07:48:30.683Z,11.60
2019-02-05T07:49:30.536Z,11.89
2019-02-05T07:50:30.523Z,11.69
2019-02-05T07:51:30.517Z,11.80
2019-02-05T07:52:30.502Z,11.30
2019-02-05T07:53:33.151Z,11.19
2019-02-05T07:54:30.483Z,11.89
2019-02-05T07:55:30.469Z,11.39
2019-02-05T07:56:30.464Z,11.30
2019-02-05T07:57:30.450Z,11.69
2019-02-05T07:58:30.435Z,11.00
2019-02-05T07:59:30.424Z,11.19
2019-02-05T08:00:30.420Z,12.19
2019-02-05T08:01:30.407Z,12.10
2019-02-05T08:02:30.401Z,11.60
2019-02-05T08:03:30.383Z,11.69
2019-02-05T08:04:30.380Z,12.39
2019-02-05T08:05:30.359Z,11.60
2019-02-05T08:06:30.347Z,11.80
2019-02-05T08:07:30.343Z,11.50
2019-02-05T08:08:30.326Z,11.69
2019-02-05T08:09:30.317Z,12.10
2019-02-05T08:10:30.307Z,11.60
2019-02-05T08:11:30.295Z,11.19
2019-02-05T08:12:30.283Z,11.10
2019-02-05T08:13:30.281Z,11.10
2019-02-05T08:14:30.320Z,11.39
2019-02-05T08:15:30.250Z,11.19
2019-02-05T08:16:30.240Z,11.10
2019-02-05T08:17:30.229Z,10.80
2019-02-05T08:18:30.219Z,11.69
2019-02-05T08:19:30.208Z,11.10
2019-02-05T08:20:30.200Z,11.69
2019-02-05T08:21:30.185Z,11.60
2019-02-05T08:22:32.259Z,11.69
2019-02-05T08:23:30.161Z,11.39
2019-02-05T08:24:30.156Z,11.50
2019-02-05T08:25:30.147Z,11.80
2019-02-05T08:26:30.129Z,11.80
2019-02-05T08:27:30.118Z,11.80
2019-02-05T08:28:40.367Z,11.69
2019-02-05T08:29:31.113Z,12.50
2019-02-05T08:30:30.085Z,12.10
2019-02-05T08:31:30.074Z,12.00
2019-02-05T08:32:30.062Z,12.19
2019-02-05T08:33:30.052Z,12.39
2019-02-05T08:34:30.042Z,13.00
2019-02-05T08:35:30.030Z,12.89
2019-02-05T08:36:30.019Z,12.60
2019-02-05T08:37:30.014Z,13.10
2019-02-05T08:38:29.998Z,11.89
2019-02-05T08:39:29.987Z,11.60
2019-02-05T08:40:29.977Z,13.19
2019-02-05T08:41:29.968Z,12.80
2019-02-05T08:42:29.953Z,12.89
2019-02-05T08:43:29.943Z,12.89
2019-02-05T08:44:29.931Z,12.39
2019-02-05T08:45:29.920Z,12.30
2019-02-05T08:46:29.916Z,12.69
2019-02-05T08:47:29.899Z,12.30
2019-02-05T08:48:29.888Z,12.69
2019-02-05T08:49:29.877Z,13.19
2019-02-05T08:50:29.867Z,12.60
2019-02-05T08:51:29.855Z,13.00
2019-02-05T08:52:29.844Z,12.10
2019-02-05T08:53:29.834Z,12.50
2019-02-05T08:54:29.827Z,11.89
2019-02-05T08:55:30.850Z,12.89
2019-02-05T08:56:29.801Z,13.39
2019-02-05T08:57:29.788Z,12.80
2019-02-05T08:58:31.339Z,13.10
2019-02-05T08:59:29.767Z,13.30
2019-02-05T09:00:29.756Z,13.19
2019-02-05T09:01:29.752Z,13.19
2019-02-05T09:02:29.945Z,13.80
2019-02-05T09:03:29.724Z,12.69
2019-02-05T09:04:29.711Z,13.30
2019-02-05T09:05:29.701Z,13.60
2019-02-05T09:06:29.689Z,13.50
2019-02-05T09:07:29.680Z,13.50
2019-02-05T09:08:29.669Z,13.80
2019-02-05T09:09:29.657Z,13.30
2019-02-05T09:10:29.647Z,13.10
2019-02-05T09:11:29.636Z,13.39
2019-02-05T09:12:29.624Z,12.39
2019-02-05T09:13:29.614Z,11.80
2019-02-05T09:14:29.608Z,12.80
2019-02-05T09:15:29.929Z,12.89
2019-02-05T09:16:29.579Z,13.00
2019-02-05T09:17:29.570Z,13.10
2019-02-05T09:18:29.557Z,13.30
2019-02-05T09:19:29.549Z,13.00
2019-02-05T09:20:29.535Z,13.30
2019-02-05T09:21:29.524Z,12.69
2019-02-05T09:22:29.512Z,13.00
2019-02-05T09:23:29.509Z,13.19
2019-02-05T09:24:29.490Z,13.50
2019-02-05T09:25:29.485Z,13.69
2019-02-05T09:26:29.473Z,14.10
2019-02-05T09:27:29.458Z,13.30
2019-02-05T09:28:29.447Z,13.50
2019-02-05T09:29:33.479Z,14.30
2019-02-05T09:30:29.424Z,13.80
2019-02-05T09:31:29.412Z,13.89
2019-02-05T09:32:35.016Z,13.19
2019-02-05T09:33:29.390Z,13.69
2019-02-05T09:34:29.380Z,13.50
2019-02-05T09:35:29.369Z,13.19
2019-02-05T09:36:29.359Z,12.89
2019-02-05T09:37:29.346Z,13.69
2019-02-05T09:38:29.336Z,13.10
2019-02-05T09:39:29.323Z,13.80
2019-02-05T09:40:29.314Z,14.30
2019-02-05T09:41:29.304Z,13.30
2019-02-05T09:42:29.292Z,13.50
2019-02-05T09:43:29.288Z,14.30
2019-02-05T09:44:31.453Z,13.30
2019-02-05T09:45:29.261Z,12.60
2019-02-05T09:46:29.253Z,13.10
2019-02-05T09:47:29.236Z,13.50
2019-02-05T09:48:29.225Z,13.19
2019-02-05T09:49:29.214Z,12.69
2019-02-05T09:50:30.960Z,12.89
2019-02-05T09:51:50.381Z,13.30
2019-02-05T09:52:50.363Z,13.10
2019-02-05T09:53:50.353Z,13.39
2019-02-05T09:54:50.342Z,13.19
2019-02-05T09:55:50.331Z,13.60
2019-02-05T09:56:50.321Z,13.10
2019-02-05T09:57:50.312Z,13.89
2019-02-05T09:58:50.299Z,13.60
2019-02-05T09:59:50.287Z,14.10
2019-02-05T10:00:50.280Z,14.19
2019-02-05T10:01:50.265Z,13.19
2019-02-05T10:02:50.254Z,13.80
2019-02-05T10:03:50.243Z,13.69
2019-02-05T10:04:50.232Z,13.89
2019-02-05T10:05:50.222Z,13.10
2019-02-05T10:06:50.267Z,14.50
2019-02-05T10:07:50.197Z,14.39
2019-02-05T10:08:50.187Z,14.39
2019-02-05T10:09:50.178Z,15.00
2019-02-05T10:10:50.165Z,13.39
2019-02-05T10:11:50.154Z,12.80
2019-02-05T10:12:50.142Z,13.69
2019-02-05T10:13:50.131Z,14.10
2019-02-05T10:14:50.121Z,13.60
2019-02-05T10:15:50.110Z,13.50
2019-02-05T10:16:50.099Z,13.69
2019-02-05T10:17:50.088Z,13.89
2019-02-05T10:18:50.077Z,12.89
2019-02-05T10:19:50.065Z,12.30
2019-02-05T10:20:50.054Z,11.60
2019-02-05T10:21:50.041Z,12.89
2019-02-05T10:22:50.031Z,12.50
2019-02-05T10:23:50.019Z,12.80
2019-02-05T10:24:50.169Z,12.00
2019-02-05T10:25:49.998Z,12.50
2019-02-05T10:26:49.988Z,12.30
2019-02-05T10:27:49.982Z,13.19
2019-02-05T10:28:49.967Z,12.50
2019-02-05T10:29:57.806Z,12.30
2019-02-05T10:30:50.961Z,12.50
2019-02-05T10:31:49.931Z,12.39
2019-02-05T10:32:49.920Z,12.50
2019-02-05T10:33:55.363Z,12.60
2019-02-05T10:34:49.900Z,12.30
2019-02-05T10:35:49.889Z,11.89
2019-02-05T10:36:49.880Z,11.80
2019-02-05T10:37:49.865Z,11.50
2019-02-05T10:38:49.856Z,12.00
2019-02-05T10:39:49.860Z,12.10
2019-02-05T10:40:49.835Z,12.60
2019-02-05T10:41:49.828Z,11.69
2019-02-05T10:42:49.817Z,12.39
2019-02-05T10:43:49.799Z,12.89
2019-02-05T10:44:49.787Z,13.19
2019-02-05T10:45:49.779Z,13.60
2019-02-05T10:46:49.766Z,12.80
2019-02-05T10:47:49.756Z,13.69
2019-02-05T10:48:49.745Z,12.30
2019-02-05T10:49:49.734Z,13.50
2019-02-05T10:50:49.722Z,11.89
2019-02-05T10:51:49.712Z,11.69
2019-02-05T10:52:49.702Z,13.10
2019-02-05T10:53:49.689Z,12.69
2019-02-05T10:54:49.677Z,13.10
2019-02-05T10:55:49.667Z,12.30
2019-02-05T10:56:49.656Z,12.19
2019-02-05T10:57:49.643Z,12.89
2019-02-05T10:58:49.633Z,13.00
2019-02-05T10:59:49.622Z,12.89
2019-02-05T11:00:49.708Z,12.39
2019-02-05T11:01:49.600Z,13.19
2019-02-05T11:02:49.724Z,13.50
2019-02-05T11:03:49.578Z,12.00
2019-02-05T11:04:49.568Z,12.69
2019-02-05T11:05:49.557Z,13.19
2019-02-05T11:06:49.555Z,13.39
2019-02-05T11:07:49.534Z,13.10
2019-02-05T11:08:49.524Z,12.89
2019-02-05T11:09:49.514Z,14.00
2019-02-05T11:10:49.503Z,13.50
2019-02-05T11:11:49.489Z,13.69
2019-02-05T11:12:49.477Z,13.30
2019-02-05T11:13:49.467Z,13.89
2019-02-05T11:14:49.457Z,13.80
2019-02-05T11:15:49.445Z,13.89
2019-02-05T11:16:49.434Z,12.30
2019-02-05T11:17:49.424Z,13.50
2019-02-05T11:18:49.413Z,12.89
2019-02-05T11:19:49.402Z,13.89
2019-02-05T11:20:49.390Z,12.80
2019-02-05T11:21:49.379Z,13.10
2019-02-05T11:22:49.370Z,11.80
2019-02-05T11:23:49.359Z,12.39
2019-02-05T11:24:49.347Z,11.69
2019-02-05T11:25:49.335Z,12.39
2019-02-05T11:26:49.325Z,12.19
2019-02-05T11:27:49.323Z,12.69
2019-02-05T11:28:49.303Z,12.50
2019-02-05T11:29:49.297Z,12.30
2019-02-05T11:30:49.282Z,11.39
2019-02-05T11:31:49.270Z,12.39
2019-02-05T11:32:49.258Z,11.89
2019-02-05T11:33:49.249Z,10.89
2019-02-05T11:34:49.238Z,11.00
2019-02-05T11:35:49.225Z,11.30
2019-02-05T11:36:49.219Z,11.39
2019-02-05T11:37:49.211Z,11.30
2019-02-05T11:38:49.196Z,10.80
2019-02-05T11:39:49.182Z,12.69
2019-02-05T11:40:49.170Z,12.19
2019-02-05T11:41:49.160Z,11.80
2019-02-05T11:42:49.149Z,10.69
2019-02-05T11:43:49.142Z,10.60
2019-02-05T11:44:49.126Z,11.10
2019-02-05T11:45:49.117Z,10.89
2019-02-05T11:46:49.104Z,11.50
2019-02-05T11:47:49.095Z,11.00
2019-02-05T11:48:49.085Z,11.30
2019-02-05T11:49:49.072Z,11.10
2019-02-05T11:50:49.062Z,10.60
2019-02-05T11:51:49.054Z,10.89
2019-02-05T11:52:49.040Z,11.30
2019-02-05T11:53:49.030Z,11.60
2019-02-05T11:54:49.017Z,11.00
2019-02-05T11:55:49.006Z,11.10
2019-02-05T11:56:49.009Z,11.30
2019-02-05T11:57:48.989Z,10.30
2019-02-05T11:58:48.978Z,10.10
2019-02-05T11:59:48.968Z,10.89
2019-02-05T12:00:48.951Z,10.10
2019-02-05T12:01:48.940Z,9.60
2019-02-05T12:02:49.252Z,9.80
2019-02-05T12:03:48.917Z,9.69
2019-02-05T12:04:48.906Z,9.69
2019-02-05T12:05:48.898Z,9.50
2019-02-05T12:06:48.886Z,9.30
2019-02-05T12:07:48.875Z,10.10
2019-02-05T12:08:48.862Z,9.19
2019-02-05T12:09:48.855Z,9.60
2019-02-05T12:10:48.841Z,10.00
2019-02-05T12:11:48.830Z,9.50
2019-02-05T12:12:48.833Z,9.30
2019-02-05T12:13:48.808Z,9.69
2019-02-05T12:14:50.471Z,9.80
2019-02-05T12:15:48.787Z,9.69
2019-02-05T12:16:48.777Z,10.10
2019-02-05T12:17:48.765Z,8.89
2019-02-05T12:18:48.864Z,9.00
2019-02-05T12:19:48.742Z,8.89
2019-02-05T12:20:48.732Z,9.39
2019-02-05T12:21:48.719Z,9.30
2019-02-05T12:22:48.710Z,9.19
2019-02-05T12:23:48.699Z,9.50
2019-02-05T12:24:48.688Z,9.39
2019-02-05T12:25:48.678Z,9.80
2019-02-05T12:26:48.667Z,9.69
2019-02-05T12:27:48.655Z,9.19
2019-02-05T12:28:48.648Z,9.50
2019-02-05T12:29:48.632Z,8.60
2019-02-05T12:30:48.620Z,8.80
2019-02-05T12:31:48.611Z,9.00
2019-02-05T12:32:48.605Z,9.10
2019-02-05T12:33:48.590Z,8.50
2019-02-05T12:34:48.578Z,9.30
2019-02-05T12:35:48.566Z,9.19
2019-02-05T12:36:48.556Z,9.10
2019-02-05T12:37:48.544Z,9.69
2019-02-05T12:38:48.531Z,9.00
2019-02-05T12:39:48.523Z,9.39
2019-02-05T12:40:48.512Z,9.39
2019-02-05T12:41:48.500Z,8.50
2019-02-05T12:42:48.491Z,9.00
2019-02-05T12:43:48.487Z,9.19
2019-02-05T12:44:48.469Z,8.60
2019-02-05T12:45:48.457Z,9.10
2019-02-05T12:46:48.446Z,8.50
2019-02-05T12:47:48.436Z,9.10
2019-02-05T12:48:48.424Z,9.19
2019-02-05T12:49:48.412Z,8.50
2019-02-05T12:50:48.432Z,8.10
2019-02-05T12:51:48.392Z,8.89
2019-02-05T12:52:48.381Z,8.60
2019-02-05T12:53:48.371Z,8.89
2019-02-05T12:54:48.368Z,8.60
2019-02-05T12:55:48.348Z,8.60
2019-02-05T12:56:48.334Z,9.19
2019-02-05T12:57:48.326Z,9.00
2019-02-05T12:58:48.314Z,9.50
2019-02-05T12:59:48.302Z,9.60
2019-02-05T13:00:56.459Z,9.50
2019-02-05T13:02:09.460Z,8.30
2019-02-05T13:03:09.449Z,9.00
2019-02-05T13:04:09.438Z,9.69
2019-02-05T13:05:09.428Z,9.39
2019-02-05T13:06:09.418Z,9.30
2019-02-05T13:07:09.408Z,10.00
2019-02-05T13:08:09.400Z,9.60
2019-02-05T13:09:09.384Z,9.69
2019-02-05T13:10:09.372Z,9.50
2019-02-05T13:11:09.362Z,9.50
2019-02-05T13:12:09.350Z,9.80
2019-02-05T13:13:09.340Z,10.00
2019-02-05T13:14:09.328Z,9.50
2019-02-05T13:15:09.317Z,9.69